WetterOnline ( https://www.wetteronline.at )

Wetter aktuell Westerwald (in 500m)

Aktuelles Wetter: Bad Marienberg (555m)

6-stündlich | Neueste Meldungen
Ortszeit Temperatur Wetter
Di, 07.04. 14:00 17.0° C bewölkt
Di, 07.04. 8:00 9.3° C fast wolkenlos
Di, 07.04. 2:00 11.0° C wolkig
Mo, 06.04. 20:00 15.8° C wolkenlos
Mo, 06.04. 14:00 18.0° C wolkenlos
Mo, 06.04. 8:00 8.6° C wolkenlos
Mo, 06.04. 2:00 9.1° C wolkenlos
So, 05.04. 20:00 12.0° C wolkenlos
Ortszeit Temperatur Wetter
Di, 07.04. 17:30 18.8° C wolkenlos
Di, 07.04. 17:20 18.8° C wolkenlos
Di, 07.04. 17:10 18.0° C wolkenlos
Di, 07.04. 17:00 18.4° C wolkenlos
Di, 07.04. 16:50 18.4° C wolkenlos
Di, 07.04. 16:40 18.0° C wolkenlos
Di, 07.04. 16:30 18.0° C fast wolkenlos
Di, 07.04. 16:00 17.1° C wolkig
Di, 07.04. 15:30 17.1° C bewölkt
Di, 07.04. 15:00 18.5° C wolkig
Di, 07.04. 14:30 17.8° C wolkig
Di, 07.04. 14:00 17.0° C bewölkt
Ortszeit Relative Feuchte Sichtweite
Di, 07.04. 14:00 50% 40 km
Di, 07.04. 8:00 82% 19 km
Di, 07.04. 2:00 61% 35 km
Mo, 06.04. 20:00 32% 40 km
Mo, 06.04. 14:00 30% 50 km
Mo, 06.04. 8:00 49% 50 km
Mo, 06.04. 2:00 47% 55 km
So, 05.04. 20:00 41% 40 km
Ortszeit Relative Feuchte Sichtweite
Di, 07.04. 17:30 42% >70 km
Di, 07.04. 17:20 42% -
Di, 07.04. 17:10 43% -
Di, 07.04. 17:00 49% >70 km
Di, 07.04. 16:50 49% -
Di, 07.04. 16:40 45% -
Di, 07.04. 16:30 47% 55 km
Di, 07.04. 16:00 50% 35 km
Di, 07.04. 15:30 48% 35 km
Di, 07.04. 15:00 47% 35 km
Di, 07.04. 14:30 47% 55 km
Di, 07.04. 14:00 50% 40 km
Ortszeit Niederschlagsmenge Niederschlagsart
Di, 07.04. 14:00 0.0 l/m2 in 6 Std. -
Di, 07.04. 8:00 0.0 l/m2 in 12 Std. -
Di, 07.04. 2:00 0.0 l/m2 in 6 Std. -
Mo, 06.04. 20:00 0.0 l/m2 in 12 Std. -
Mo, 06.04. 14:00 0.0 l/m2 in 6 Std. -
Mo, 06.04. 8:00 0.0 l/m2 in 12 Std. -
Mo, 06.04. 2:00 0.0 l/m2 in 6 Std. -
So, 05.04. 20:00 0.0 l/m2 in 12 Std. -
Ortszeit Niederschlagsmenge Niederschlagsart
Di, 07.04. 17:30 0.0 l/m2 in 1 Std. -
Di, 07.04. 17:20 keine Meldung -
Di, 07.04. 17:10 keine Meldung -
Di, 07.04. 17:00 0.0 l/m2 in 1 Std. -
Di, 07.04. 16:50 keine Meldung -
Di, 07.04. 16:40 keine Meldung -
Di, 07.04. 16:30 0.0 l/m2 in 1 Std. -
Di, 07.04. 16:00 0.0 l/m2 in 1 Std. -
Di, 07.04. 15:30 0.0 l/m2 in 1 Std. -
Di, 07.04. 15:00 0.0 l/m2 in 1 Std. -
Di, 07.04. 14:30 0.0 l/m2 in 1 Std. -
Di, 07.04. 14:00 0.0 l/m2 in 1 Std. -
Ortszeit Stärke Spitze Richtung
km/h Bft. km/h Grad Sektor
Di, 07.04. 14:00 13 3 20 140° SO
Di, 07.04. 8:00 7 2 22 10° N
Di, 07.04. 2:00 14 3 32 340° N
Mo, 06.04. 20:00 11 2 43 240° SW
Mo, 06.04. 14:00 22 4 36 210° SW
Mo, 06.04. 8:00 13 3 24 130° SO
Mo, 06.04. 2:00 19 3 39 130° SO
So, 05.04. 20:00 17 3 44 140° SO
Ortszeit Stärke Spitze Richtung
km/h Bft. km/h Grad Sektor
Di, 07.04. 17:30 4 1 14 20° N
Di, 07.04. 17:20 4 1 - 20° N
Di, 07.04. 17:10 7 2 - 90° O
Di, 07.04. 17:00 11 2 15 130° SO
Di, 07.04. 16:50 11 2 - 130° SO
Di, 07.04. 16:40 7 2 - 100° O
Di, 07.04. 16:30 7 2 11 90° O
Di, 07.04. 16:00 7 2 18 50° NO
Di, 07.04. 15:30 7 2 17 50° NO
Di, 07.04. 15:00 6 1 19 290° W
Di, 07.04. 14:30 4 1 18 100° O
Di, 07.04. 14:00 13 3 20 140° SO
Ortszeit Untergrenze Bedeckung Gattung
total tief tief mittel hoch
Di, 07.04. 14:00 1350 m 7/8 7/8 - - -
Di, 07.04. 8:00 1500 m 0/8 0/8 - - -
Di, 07.04. 2:00 2100 m 6/8 6/8 - - -
Mo, 06.04. 20:00 - 0/8 0/8 - - -
Mo, 06.04. 14:00 - 0/8 0/8 - - -
Mo, 06.04. 8:00 - 0/8 0/8 - - -
Mo, 06.04. 2:00 - 0/8 0/8 - - -
So, 05.04. 20:00 - 0/8 0/8 - - -
Ortszeit Bedeckungsgrad in Achtel und Wolkenuntergrenze
Di, 07.04. 17:30 keine Wolken
Di, 07.04. 17:20 keine Wolken
Di, 07.04. 17:10 keine Wolken
Di, 07.04. 17:00 keine Wolken
Di, 07.04. 16:50 keine Wolken
Di, 07.04. 16:40 keine Wolken
Di, 07.04. 16:30 1(1800m)
Di, 07.04. 16:00 7(1500m) 5(1800m)
Di, 07.04. 15:30 6(1440m) 7(1500m)
Di, 07.04. 15:00 7(1500m)
Di, 07.04. 14:30 6(1440m) 6(1500m)
Di, 07.04. 14:00 7(1350m) 7(1500m)
Ortszeit Luftdruck NN (hPa) Tendenz (hPa in 3 Std.)
Di, 07.04. 14:00 1029 - 0,5
Di, 07.04. 8:00 1030 + 1,2
Di, 07.04. 2:00 1028 + 1,9
Mo, 06.04. 20:00 1023 + 1,1
Mo, 06.04. 14:00 1021 + 0,4
Mo, 06.04. 8:00 1021 + 0,8
Mo, 06.04. 2:00 1020 - 0,1
So, 05.04. 20:00 1020 - 1,0
Ortszeit Luftdruck NN (hPa) Tendenz (hPa in 3 Std.)
Di, 07.04. 17:30 1028 - 1,1
Di, 07.04. 17:20 1028 keine Meldung
Di, 07.04. 17:10 1028 keine Meldung
Di, 07.04. 17:00 1028 - 1,1
Di, 07.04. 16:50 1028 keine Meldung
Di, 07.04. 16:40 1028 keine Meldung
Di, 07.04. 16:30 1028 - 1,0
Di, 07.04. 16:00 1029 - 1,1
Di, 07.04. 15:30 1029 - 1,0
Di, 07.04. 15:00 1029 - 1,0
Di, 07.04. 14:30 1029 - 0,8
Di, 07.04. 14:00 1029 - 0,5
Ortszeit Schneehöhe (cm)
Di, 07.04. 14:00 0
Di, 07.04. 8:00 0
Di, 07.04. 2:00 0
Mo, 06.04. 20:00 0
Mo, 06.04. 14:00 0
Mo, 06.04. 8:00 0
Mo, 06.04. 2:00 0
So, 05.04. 20:00 0
Ortszeit Schneehöhe (cm)
Di, 07.04. 17:30 0
Di, 07.04. 17:20 0
Di, 07.04. 17:10 0
Di, 07.04. 17:00 0
Di, 07.04. 16:50 0
Di, 07.04. 16:40 0
Di, 07.04. 16:30 0
Di, 07.04. 16:00 0
Di, 07.04. 15:30 0
Di, 07.04. 15:00 0
Di, 07.04. 14:30 0
Di, 07.04. 14:00 0
Link zu dieser Seite / Seite empfehlen

Das Wetter in ...